sensor_id;sensor_type;location;lat;lon;timestamp;pressure;altitude;pressure_sealevel;temperature;humidity
41898;BME280;27576;53.366;-1.498;2023-08-08T00:00:46;100104.59;;;13.20;100.00
41898;BME280;27576;53.366;-1.498;2023-08-08T00:03:11;100106.31;;;13.21;100.00
41898;BME280;27576;53.366;-1.498;2023-08-08T00:05:37;100082.06;;;13.07;100.00
41898;BME280;27576;53.366;-1.498;2023-08-08T00:08:02;100120.22;;;13.25;100.00
41898;BME280;27576;53.366;-1.498;2023-08-08T00:10:27;100127.13;;;13.27;100.00
41898;BME280;27576;53.366;-1.498;2023-08-08T00:12:53;100096.78;;;13.13;100.00
41898;BME280;27576;53.366;-1.498;2023-08-08T00:15:18;100108.03;;;13.22;100.00
41898;BME280;27576;53.366;-1.498;2023-08-08T00:17:43;100088.97;;;13.08;100.00
41898;BME280;27576;53.366;-1.498;2023-08-08T00:20:10;100115.84;;;13.21;100.00
41898;BME280;27576;53.366;-1.498;2023-08-08T00:22:35;100125.41;;;13.20;100.00
41898;BME280;27576;53.366;-1.498;2023-08-08T00:25:01;100115.88;;;13.13;100.00
41898;BME280;27576;53.366;-1.498;2023-08-08T00:27:26;100106.34;;;13.06;100.00
41898;BME280;27576;53.366;-1.498;2023-08-08T00:29:52;100107.22;;;13.02;100.00
41898;BME280;27576;53.366;-1.498;2023-08-08T00:32:18;100132.34;;;13.14;100.00
41898;BME280;27576;53.366;-1.498;2023-08-08T00:34:44;100135.81;;;13.11;100.00
41898;BME280;27576;53.366;-1.498;2023-08-08T00:37:09;100064.78;;;12.72;100.00
41898;BME280;27576;53.366;-1.498;2023-08-08T00:39:35;100105.50;;;12.90;100.00
41898;BME280;27576;53.366;-1.498;2023-08-08T00:42:00;100144.47;;;13.12;100.00
41898;BME280;27576;53.366;-1.498;2023-08-08T00:44:25;100147.94;;;13.12;100.00
41898;BME280;27576;53.366;-1.498;2023-08-08T00:46:51;100147.97;;;13.09;100.00
41898;BME280;27576;53.366;-1.498;2023-08-08T00:49:16;100122.84;;;12.94;100.00
41898;BME280;27576;53.366;-1.498;2023-08-08T00:51:42;100150.56;;;13.06;100.00
41898;BME280;27576;53.366;-1.498;2023-08-08T00:54:07;100118.50;;;12.89;100.00
41898;BME280;27576;53.366;-1.498;2023-08-08T00:56:34;100121.97;;;12.86;100.00
41898;BME280;27576;53.366;-1.498;2023-08-08T00:59:00;100103.78;;;12.80;100.00
41898;BME280;27576;53.366;-1.498;2023-08-08T01:01:26;100147.09;;;12.99;100.00
41898;BME280;27576;53.366;-1.498;2023-08-08T01:03:53;100146.22;;;12.99;100.00
41898;BME280;27576;53.366;-1.498;2023-08-08T01:06:38;100135.84;;;12.97;100.00
41898;BME280;27576;53.366;-1.498;2023-08-08T01:09:21;100133.22;;;12.96;100.00
41898;BME280;27576;53.366;-1.498;2023-08-08T01:11:49;100123.69;;;12.89;100.00
41898;BME280;27576;53.366;-1.498;2023-08-08T01:14:16;100128.03;;;12.90;100.00
41898;BME280;27576;53.366;-1.498;2023-08-08T01:16:44;100135.84;;;12.90;100.00
41898;BME280;27576;53.366;-1.498;2023-08-08T01:19:12;100128.91;;;12.83;100.00
41898;BME280;27576;53.366;-1.498;2023-08-08T01:21:41;100134.97;;;12.89;100.00
41898;BME280;27576;53.366;-1.498;2023-08-08T01:24:24;100130.63;;;12.91;100.00
41898;BME280;27576;53.366;-1.498;2023-08-08T01:26:55;100133.25;;;12.87;100.00
41898;BME280;27576;53.366;-1.498;2023-08-08T01:29:20;100096.00;;;12.68;100.00
41898;BME280;27576;53.366;-1.498;2023-08-08T01:31:46;100120.22;;;12.81;100.00
41898;BME280;27576;53.366;-1.498;2023-08-08T01:34:11;100085.59;;;12.65;100.00
41898;BME280;27576;53.366;-1.498;2023-08-08T01:36:53;100106.38;;;12.78;100.00
41898;BME280;27576;53.366;-1.498;2023-08-08T01:39:27;100065.69;;;12.51;100.00
41898;BME280;27576;53.366;-1.498;2023-08-08T01:41:55;100062.22;;;12.48;100.00
41898;BME280;27576;53.366;-1.498;2023-08-08T01:44:21;100099.47;;;12.70;100.00
41898;BME280;27576;53.366;-1.498;2023-08-08T01:46:48;100102.03;;;12.68;100.00
41898;BME280;27576;53.366;-1.498;2023-08-08T01:49:14;100110.72;;;12.72;100.00
41898;BME280;27576;53.366;-1.498;2023-08-08T01:51:39;100100.31;;;12.70;100.00
41898;BME280;27576;53.366;-1.498;2023-08-08T01:54:04;100084.72;;;12.57;100.00
41898;BME280;27576;53.366;-1.498;2023-08-08T01:56:30;100106.38;;;12.68;100.00
41898;BME280;27576;53.366;-1.498;2023-08-08T01:58:55;100108.97;;;12.72;100.00
41898;BME280;27576;53.366;-1.498;2023-08-08T02:01:21;100113.31;;;12.70;100.00
41898;BME280;27576;53.366;-1.498;2023-08-08T02:03:47;100108.97;;;12.75;100.00
41898;BME280;27576;53.366;-1.498;2023-08-08T02:06:12;100095.13;;;12.72;100.00
41898;BME280;27576;53.366;-1.498;2023-08-08T02:08:37;100095.97;;;12.75;100.00
41898;BME280;27576;53.366;-1.498;2023-08-08T02:11:03;100108.13;;;12.86;100.00
41898;BME280;27576;53.366;-1.498;2023-08-08T02:13:28;100089.06;;;12.85;100.00
41898;BME280;27576;53.366;-1.498;2023-08-08T02:15:54;100091.63;;;12.90;100.00
41898;BME280;27576;53.366;-1.498;2023-08-08T02:18:19;100092.50;;;12.90;100.00
41898;BME280;27576;53.366;-1.498;2023-08-08T02:20:45;100082.97;;;12.86;100.00
41898;BME280;27576;53.366;-1.498;2023-08-08T02:23:10;100053.53;;;12.73;100.00
41898;BME280;27576;53.366;-1.498;2023-08-08T02:25:35;100095.94;;;12.92;100.00
41898;BME280;27576;53.366;-1.498;2023-08-08T02:28:01;100095.97;;;12.94;100.00
41898;BME280;27576;53.366;-1.498;2023-08-08T02:30:26;100073.44;;;12.81;100.00
41898;BME280;27576;53.366;-1.498;2023-08-08T02:32:52;100093.38;;;12.97;100.00
41898;BME280;27576;53.366;-1.498;2023-08-08T02:35:18;100089.00;;;12.96;100.00
41898;BME280;27576;53.366;-1.498;2023-08-08T02:37:43;100098.53;;;13.00;100.00
41898;BME280;27576;53.366;-1.498;2023-08-08T02:40:09;100078.59;;;12.93;100.00
41898;BME280;27576;53.366;-1.498;2023-08-08T02:42:35;100093.34;;;12.98;100.00
41898;BME280;27576;53.366;-1.498;2023-08-08T02:45:00;100063.03;;;12.84;100.00
41898;BME280;27576;53.366;-1.498;2023-08-08T02:47:26;100087.28;;;12.95;100.00
41898;BME280;27576;53.366;-1.498;2023-08-08T02:49:51;100085.56;;;12.94;100.00
41898;BME280;27576;53.366;-1.498;2023-08-08T02:52:16;100061.31;;;12.78;100.00
41898;BME280;27576;53.366;-1.498;2023-08-08T02:54:42;100089.88;;;12.92;100.00
41898;BME280;27576;53.366;-1.498;2023-08-08T02:57:07;100066.50;;;12.80;100.00
41898;BME280;27576;53.366;-1.498;2023-08-08T02:59:36;100058.72;;;12.72;100.00
41898;BME280;27576;53.366;-1.498;2023-08-08T03:02:01;100076.03;;;12.79;100.00
41898;BME280;27576;53.366;-1.498;2023-08-08T03:04:28;100081.25;;;12.82;100.00
41898;BME280;27576;53.366;-1.498;2023-08-08T03:06:54;100051.81;;;12.66;100.00
41898;BME280;27576;53.366;-1.498;2023-08-08T03:09:19;100079.50;;;12.80;100.00
41898;BME280;27576;53.366;-1.498;2023-08-08T03:11:44;100040.53;;;12.60;100.00
41898;BME280;27576;53.366;-1.498;2023-08-08T03:14:10;100076.91;;;12.80;100.00
41898;BME280;27576;53.366;-1.498;2023-08-08T03:16:35;100075.19;;;12.78;100.00
41898;BME280;27576;53.366;-1.498;2023-08-08T03:19:01;100046.59;;;12.60;100.00
41898;BME280;27576;53.366;-1.498;2023-08-08T03:21:26;100063.06;;;12.70;100.00
41898;BME280;27576;53.366;-1.498;2023-08-08T03:23:51;100069.97;;;12.75;100.00
41898;BME280;27576;53.366;-1.498;2023-08-08T03:26:16;100032.75;;;12.55;100.00
41898;BME280;27576;53.366;-1.498;2023-08-08T03:28:42;100060.47;;;12.64;100.00
41898;BME280;27576;53.366;-1.498;2023-08-08T03:31:07;100037.94;;;12.52;100.00
41898;BME280;27576;53.366;-1.498;2023-08-08T03:33:33;100060.44;;;12.68;100.00
41898;BME280;27576;53.366;-1.498;2023-08-08T03:35:58;100070.00;;;12.63;100.00
41898;BME280;27576;53.366;-1.498;2023-08-08T03:38:23;100045.75;;;12.52;100.00
41898;BME280;27576;53.366;-1.498;2023-08-08T03:40:50;100059.59;;;12.57;100.00
41898;BME280;27576;53.366;-1.498;2023-08-08T03:43:16;100061.34;;;12.63;100.00
41898;BME280;27576;53.366;-1.498;2023-08-08T03:45:41;100076.91;;;12.61;100.00
41898;BME280;27576;53.366;-1.498;2023-08-08T03:48:06;100083.88;;;12.62;100.00
41898;BME280;27576;53.366;-1.498;2023-08-08T03:50:32;100067.41;;;12.60;100.00
41898;BME280;27576;53.366;-1.498;2023-08-08T03:52:57;100069.16;;;12.58;100.00
41898;BME280;27576;53.366;-1.498;2023-08-08T03:55:23;100040.56;;;12.37;100.00
41898;BME280;27576;53.366;-1.498;2023-08-08T03:57:48;100068.25;;;12.53;100.00
41898;BME280;27576;53.366;-1.498;2023-08-08T04:00:13;100070.00;;;12.52;100.00
41898;BME280;27576;53.366;-1.498;2023-08-08T04:02:39;100072.59;;;12.48;100.00
41898;BME280;27576;53.366;-1.498;2023-08-08T04:05:04;100062.22;;;12.43;100.00
41898;BME280;27576;53.366;-1.498;2023-08-08T04:07:30;100037.94;;;12.34;100.00
41898;BME280;27576;53.366;-1.498;2023-08-08T04:09:55;100065.69;;;12.50;100.00
41898;BME280;27576;53.366;-1.498;2023-08-08T04:12:20;100053.56;;;12.47;100.00
41898;BME280;27576;53.366;-1.498;2023-08-08T04:14:46;100052.69;;;12.48;100.00
41898;BME280;27576;53.366;-1.498;2023-08-08T04:17:11;100047.50;;;12.47;100.00
41898;BME280;27576;53.366;-1.498;2023-08-08T04:19:37;100053.56;;;12.47;100.00
41898;BME280;27576;53.366;-1.498;2023-08-08T04:22:02;100047.47;;;12.38;100.00
41898;BME280;27576;53.366;-1.498;2023-08-08T04:24:27;100061.34;;;12.46;100.00
41898;BME280;27576;53.366;-1.498;2023-08-08T04:26:53;100063.94;;;12.47;100.00
41898;BME280;27576;53.366;-1.498;2023-08-08T04:29:18;100044.03;;;12.34;100.00
41898;BME280;27576;53.366;-1.498;2023-08-08T04:31:43;100063.94;;;12.47;100.00
41898;BME280;27576;53.366;-1.498;2023-08-08T04:34:09;100064.81;;;12.48;100.00
41898;BME280;27576;53.366;-1.498;2023-08-08T04:36:34;100062.19;;;12.49;100.00
41898;BME280;27576;53.366;-1.498;2023-08-08T04:39:00;100063.06;;;12.51;100.00
41898;BME280;27576;53.366;-1.498;2023-08-08T04:41:25;100058.75;;;12.52;100.00
41898;BME280;27576;53.366;-1.498;2023-08-08T04:43:50;100042.28;;;12.47;100.00
41898;BME280;27576;53.366;-1.498;2023-08-08T04:46:16;100042.28;;;12.53;100.00
41898;BME280;27576;53.366;-1.498;2023-08-08T04:48:41;100031.03;;;12.46;100.00
41898;BME280;27576;53.366;-1.498;2023-08-08T04:51:08;100042.28;;;12.59;100.00
41898;BME280;27576;53.366;-1.498;2023-08-08T04:53:33;100053.53;;;12.60;100.00
41898;BME280;27576;53.366;-1.498;2023-08-08T04:55:59;100044.88;;;12.55;100.00
41898;BME280;27576;53.366;-1.498;2023-08-08T04:58:24;100050.94;;;12.58;100.00
41898;BME280;27576;53.366;-1.498;2023-08-08T05:00:50;100047.47;;;12.61;100.00
41898;BME280;27576;53.366;-1.498;2023-08-08T05:03:20;100048.31;;;12.61;100.00
41898;BME280;27576;53.366;-1.498;2023-08-08T05:05:45;100052.66;;;12.64;100.00
41898;BME280;27576;53.366;-1.498;2023-08-08T05:08:14;100054.41;;;12.66;100.00
41898;BME280;27576;53.366;-1.498;2023-08-08T05:10:39;100051.78;;;12.68;100.00
41898;BME280;27576;53.366;-1.498;2023-08-08T05:13:05;100056.13;;;12.70;100.00
41898;BME280;27576;53.366;-1.498;2023-08-08T05:15:30;100037.94;;;12.61;100.00
41898;BME280;27576;53.366;-1.498;2023-08-08T05:17:55;100052.66;;;12.68;100.00
41898;BME280;27576;53.366;-1.498;2023-08-08T05:20:22;100046.59;;;12.71;100.00
41898;BME280;27576;53.366;-1.498;2023-08-08T05:22:47;100026.66;;;12.64;100.00
41898;BME280;27576;53.366;-1.498;2023-08-08T05:25:13;100051.78;;;12.82;100.00
41898;BME280;27576;53.366;-1.498;2023-08-08T05:27:39;100040.50;;;12.76;100.00
41898;BME280;27576;53.366;-1.498;2023-08-08T05:30:05;100024.03;;;12.73;100.00
41898;BME280;27576;53.366;-1.498;2023-08-08T05:32:30;100045.66;;;12.89;100.00
41898;BME280;27576;53.366;-1.498;2023-08-08T05:34:56;100027.50;;;12.84;100.00
41898;BME280;27576;53.366;-1.498;2023-08-08T05:37:23;100030.06;;;12.92;100.00
41898;BME280;27576;53.366;-1.498;2023-08-08T05:39:48;100030.06;;;12.96;100.00
41898;BME280;27576;53.366;-1.498;2023-08-08T05:42:13;100020.53;;;12.97;100.00
41898;BME280;27576;53.366;-1.498;2023-08-08T05:44:39;100039.56;;;13.03;100.00
41898;BME280;27576;53.366;-1.498;2023-08-08T05:47:06;100033.50;;;13.03;100.00
41898;BME280;27576;53.366;-1.498;2023-08-08T05:49:32;100043.88;;;13.12;100.00
41898;BME280;27576;53.366;-1.498;2023-08-08T05:51:57;100029.16;;;13.11;100.00
41898;BME280;27576;53.366;-1.498;2023-08-08T05:54:23;100034.31;;;13.19;100.00
41898;BME280;27576;53.366;-1.498;2023-08-08T05:56:48;100021.34;;;13.14;100.00
41898;BME280;27576;53.366;-1.498;2023-08-08T05:59:13;99994.50;;;13.06;100.00
41898;BME280;27576;53.366;-1.498;2023-08-08T06:01:39;100031.72;;;13.30;100.00
41898;BME280;27576;53.366;-1.498;2023-08-08T06:04:04;100024.75;;;13.33;100.00
41898;BME280;27576;53.366;-1.498;2023-08-08T06:06:29;100003.97;;;13.25;100.00
41898;BME280;27576;53.366;-1.498;2023-08-08T06:08:55;100032.47;;;13.53;100.00
41898;BME280;27576;53.366;-1.498;2023-08-08T06:11:20;100006.44;;;13.51;100.00
41898;BME280;27576;53.366;-1.498;2023-08-08T06:13:46;100013.31;;;13.63;100.00
41898;BME280;27576;53.366;-1.498;2023-08-08T06:16:12;100019.31;;;13.78;100.00
41898;BME280;27576;53.366;-1.498;2023-08-08T06:18:38;100011.50;;;13.76;100.00
41898;BME280;27576;53.366;-1.498;2023-08-08T06:21:03;99996.75;;;13.73;100.00
41898;BME280;27576;53.366;-1.498;2023-08-08T06:23:28;100023.53;;;13.94;100.00
41898;BME280;27576;53.366;-1.498;2023-08-08T06:25:54;100013.97;;;13.96;100.00
41898;BME280;27576;53.366;-1.498;2023-08-08T06:28:19;100009.63;;;13.95;100.00
41898;BME280;27576;53.366;-1.498;2023-08-08T06:30:44;100020.03;;;13.99;100.00
41898;BME280;27576;53.366;-1.498;2023-08-08T06:33:10;100018.31;;;13.94;100.00
41898;BME280;27576;53.366;-1.498;2023-08-08T06:35:36;100027.84;;;13.95;100.00
41898;BME280;27576;53.366;-1.498;2023-08-08T06:38:02;100014.00;;;13.91;100.00
41898;BME280;27576;53.366;-1.498;2023-08-08T06:40:28;100024.38;;;13.97;100.00
41898;BME280;27576;53.366;-1.498;2023-08-08T06:42:53;100031.22;;;14.12;100.00
41898;BME280;27576;53.366;-1.498;2023-08-08T06:45:18;100026.75;;;14.25;100.00
41898;BME280;27576;53.366;-1.498;2023-08-08T06:47:44;100036.19;;;14.41;100.00
41898;BME280;27576;53.366;-1.498;2023-08-08T06:50:10;100028.19;;;14.61;100.00
41898;BME280;27576;53.366;-1.498;2023-08-08T06:52:35;100028.88;;;14.80;100.00
41898;BME280;27576;53.366;-1.498;2023-08-08T06:55:01;100002.84;;;14.79;100.00
41898;BME280;27576;53.366;-1.498;2023-08-08T06:57:26;100023.41;;;15.06;100.00
41898;BME280;27576;53.366;-1.498;2023-08-08T06:59:51;100024.31;;;15.02;100.00
41898;BME280;27576;53.366;-1.498;2023-08-08T07:02:21;99995.91;;;14.75;100.00
41898;BME280;27576;53.366;-1.498;2023-08-08T07:04:46;100021.06;;;14.82;100.00
41898;BME280;27576;53.366;-1.498;2023-08-08T07:07:11;100024.59;;;14.73;100.00
41898;BME280;27576;53.366;-1.498;2023-08-08T07:09:37;100025.53;;;14.67;100.00
41898;BME280;27576;53.366;-1.498;2023-08-08T07:12:03;100020.38;;;14.63;100.00
41898;BME280;27576;53.366;-1.498;2023-08-08T07:14:29;100022.06;;;14.65;100.00
41898;BME280;27576;53.366;-1.498;2023-08-08T07:16:54;100023.81;;;14.66;100.00
41898;BME280;27576;53.366;-1.498;2023-08-08T07:19:21;100029.03;;;14.68;100.00
41898;BME280;27576;53.366;-1.498;2023-08-08T07:21:46;100020.31;;;14.70;100.00
41898;BME280;27576;53.366;-1.498;2023-08-08T07:24:12;100016.84;;;14.70;100.00
41898;BME280;27576;53.366;-1.498;2023-08-08T07:26:37;100018.47;;;14.77;100.00
41898;BME280;27576;53.366;-1.498;2023-08-08T07:29:02;100015.84;;;14.82;100.00
41898;BME280;27576;53.366;-1.498;2023-08-08T07:31:30;100017.53;;;14.86;100.00
41898;BME280;27576;53.366;-1.498;2023-08-08T07:33:55;100006.22;;;14.87;100.00
41898;BME280;27576;53.366;-1.498;2023-08-08T07:36:21;100030.38;;;15.03;100.00
41898;BME280;27576;53.366;-1.498;2023-08-08T07:38:46;100024.19;;;15.11;100.00
41898;BME280;27576;53.366;-1.498;2023-08-08T07:41:12;100018.84;;;15.20;100.00
41898;BME280;27576;53.366;-1.498;2023-08-08T07:43:37;100005.03;;;15.14;100.00
41898;BME280;27576;53.366;-1.498;2023-08-08T07:46:02;100018.75;;;15.30;100.00
41898;BME280;27576;53.366;-1.498;2023-08-08T07:48:28;100013.38;;;15.40;100.00
41898;BME280;27576;53.366;-1.498;2023-08-08T07:50:53;100014.06;;;15.55;100.00
41898;BME280;27576;53.366;-1.498;2023-08-08T07:53:18;100016.53;;;15.68;100.00
41898;BME280;27576;53.366;-1.498;2023-08-08T07:55:44;100012.03;;;15.78;100.00
41898;BME280;27576;53.366;-1.498;2023-08-08T07:58:09;100011.91;;;15.86;100.00
41898;BME280;27576;53.366;-1.498;2023-08-08T08:00:34;99997.19;;;15.80;100.00
41898;BME280;27576;53.366;-1.498;2023-08-08T08:03:00;100024.06;;;15.88;100.00
41898;BME280;27576;53.366;-1.498;2023-08-08T08:05:25;100022.50;;;15.77;100.00
41898;BME280;27576;53.366;-1.498;2023-08-08T08:07:51;99999.16;;;15.63;100.00
41898;BME280;27576;53.366;-1.498;2023-08-08T08:10:16;100009.63;;;15.60;100.00
41898;BME280;27576;53.366;-1.498;2023-08-08T08:12:42;100016.53;;;15.68;100.00
41898;BME280;27576;53.366;-1.498;2023-08-08T08:15:08;100012.06;;;15.77;100.00
41898;BME280;27576;53.366;-1.498;2023-08-08T08:17:34;99985.94;;;15.77;100.00
41898;BME280;27576;53.366;-1.498;2023-08-08T08:19:59;99991.66;;;15.99;100.00
41898;BME280;27576;53.366;-1.498;2023-08-08T08:22:25;100000.00;;;16.22;100.00
41898;BME280;27576;53.366;-1.498;2023-08-08T08:24:50;99992.16;;;16.24;100.00
41898;BME280;27576;53.366;-1.498;2023-08-08T08:27:16;99973.84;;;16.22;100.00
41898;BME280;27576;53.366;-1.498;2023-08-08T08:29:42;100005.91;;;16.33;100.00
41898;BME280;27576;53.366;-1.498;2023-08-08T08:32:08;100001.66;;;16.28;100.00
41898;BME280;27576;53.366;-1.498;2023-08-08T08:34:34;100008.69;;;16.24;100.00
41898;BME280;27576;53.366;-1.498;2023-08-08T08:36:59;100012.94;;;16.30;100.00
41898;BME280;27576;53.366;-1.498;2023-08-08T08:39:24;99999.81;;;16.33;100.00
41898;BME280;27576;53.366;-1.498;2023-08-08T08:41:54;99988.25;;;16.46;100.00
41898;BME280;27576;53.366;-1.498;2023-08-08T08:44:24;99961.84;;;16.58;100.00
41898;BME280;27576;53.366;-1.498;2023-08-08T08:46:51;99991.84;;;16.90;100.00
41898;BME280;27576;53.366;-1.498;2023-08-08T08:49:17;99980.28;;;17.00;100.00
41898;BME280;27576;53.366;-1.498;2023-08-08T08:51:44;99973.13;;;17.10;100.00
41898;BME280;27576;53.366;-1.498;2023-08-08T08:54:10;99990.84;;;17.37;99.53
41898;BME280;27576;53.366;-1.498;2023-08-08T08:56:35;99967.13;;;17.45;99.65
41898;BME280;27576;53.366;-1.498;2023-08-08T08:59:01;99976.53;;;17.54;92.63
41898;BME280;27576;53.366;-1.498;2023-08-08T09:01:27;99979.94;;;17.57;94.37
41898;BME280;27576;53.366;-1.498;2023-08-08T09:03:53;99961.94;;;17.42;94.09
41898;BME280;27576;53.366;-1.498;2023-08-08T09:06:19;99984.50;;;17.48;95.13
41898;BME280;27576;53.366;-1.498;2023-08-08T09:08:46;99970.78;;;17.36;95.12
41898;BME280;27576;53.366;-1.498;2023-08-08T09:11:12;99981.28;;;17.35;96.28
41898;BME280;27576;53.366;-1.498;2023-08-08T09:13:38;99965.00;;;17.22;96.55
41898;BME280;27576;53.366;-1.498;2023-08-08T09:16:06;99944.38;;;17.07;96.48
41898;BME280;27576;53.366;-1.498;2023-08-08T09:18:32;99971.84;;;17.28;97.03
41898;BME280;27576;53.366;-1.498;2023-08-08T09:20:58;99961.59;;;17.17;96.88
41898;BME280;27576;53.366;-1.498;2023-08-08T09:23:23;99972.88;;;17.21;93.27
41898;BME280;27576;53.366;-1.498;2023-08-08T09:25:49;99966.88;;;17.15;95.29
41898;BME280;27576;53.366;-1.498;2023-08-08T09:28:15;99957.25;;;17.16;96.97
41898;BME280;27576;53.366;-1.498;2023-08-08T09:30:41;99949.28;;;17.21;95.52
41898;BME280;27576;53.366;-1.498;2023-08-08T09:33:07;99952.78;;;17.21;94.78
41898;BME280;27576;53.366;-1.498;2023-08-08T09:35:33;99959.50;;;17.34;92.69
41898;BME280;27576;53.366;-1.498;2023-08-08T09:37:58;99960.34;;;17.35;92.36
41898;BME280;27576;53.366;-1.498;2023-08-08T09:40:24;99955.09;;;17.35;90.96
41898;BME280;27576;53.366;-1.498;2023-08-08T09:42:51;99959.50;;;17.34;91.43
41898;BME280;27576;53.366;-1.498;2023-08-08T09:45:18;99949.94;;;17.32;92.00
41898;BME280;27576;53.366;-1.498;2023-08-08T09:47:44;99878.34;;;16.94;90.13
41898;BME280;27576;53.366;-1.498;2023-08-08T09:50:09;99949.88;;;17.35;90.41
41898;BME280;27576;53.366;-1.498;2023-08-08T09:52:35;99955.56;;;17.52;92.88
41898;BME280;27576;53.366;-1.498;2023-08-08T09:55:04;99945.03;;;17.55;88.50
41898;BME280;27576;53.366;-1.498;2023-08-08T09:57:30;99951.19;;;17.54;88.66
41898;BME280;27576;53.366;-1.498;2023-08-08T09:59:56;99947.63;;;17.57;87.71
41898;BME280;27576;53.366;-1.498;2023-08-08T10:02:22;99953.69;;;17.59;89.18
41898;BME280;27576;53.366;-1.498;2023-08-08T10:04:48;99946.63;;;17.62;90.68
41898;BME280;27576;53.366;-1.498;2023-08-08T10:07:14;99945.59;;;17.70;88.07
41898;BME280;27576;53.366;-1.498;2023-08-08T10:09:40;99945.38;;;17.79;89.38
41898;BME280;27576;53.366;-1.498;2023-08-08T10:12:06;99934.97;;;17.76;88.82
41898;BME280;27576;53.366;-1.498;2023-08-08T10:14:35;99954.69;;;17.92;88.71
41898;BME280;27576;53.366;-1.498;2023-08-08T10:17:05;99959.03;;;17.93;86.41
41898;BME280;27576;53.366;-1.498;2023-08-08T10:19:31;99967.75;;;17.94;86.99
41898;BME280;27576;53.366;-1.498;2023-08-08T10:21:59;99957.38;;;17.89;86.28
41898;BME280;27576;53.366;-1.498;2023-08-08T10:24:35;99967.09;;;17.84;84.31
41898;BME280;27576;53.366;-1.498;2023-08-08T10:27:01;99960.31;;;17.77;84.84
41898;BME280;27576;53.366;-1.498;2023-08-08T10:29:29;99964.69;;;17.75;83.87
41898;BME280;27576;53.366;-1.498;2023-08-08T10:32:02;99974.34;;;17.71;84.29
41898;BME280;27576;53.366;-1.498;2023-08-08T10:34:44;99977.16;;;17.63;84.23
41898;BME280;27576;53.366;-1.498;2023-08-08T10:37:12;99985.97;;;17.59;86.57
41898;BME280;27576;53.366;-1.498;2023-08-08T10:39:48;99993.09;;;17.54;85.92
41898;BME280;27576;53.366;-1.498;2023-08-08T10:42:18;99978.19;;;17.56;85.63
41898;BME280;27576;53.366;-1.498;2023-08-08T10:44:54;99966.75;;;17.60;87.01
41898;BME280;27576;53.366;-1.498;2023-08-08T10:47:34;99964.84;;;17.69;87.73
41898;BME280;27576;53.366;-1.498;2023-08-08T10:50:05;99953.28;;;17.77;88.78
41898;BME280;27576;53.366;-1.498;2023-08-08T10:52:33;99952.44;;;17.77;85.43
41898;BME280;27576;53.366;-1.498;2023-08-08T10:55:01;99948.06;;;17.77;85.77
41898;BME280;27576;53.366;-1.498;2023-08-08T10:57:27;99955.94;;;17.76;84.84
41898;BME280;27576;53.366;-1.498;2023-08-08T10:59:53;99916.97;;;17.60;84.75
41898;BME280;27576;53.366;-1.498;2023-08-08T11:02:20;99943.78;;;17.72;84.94
41898;BME280;27576;53.366;-1.498;2023-08-08T11:04:46;99940.22;;;17.76;85.48
41898;BME280;27576;53.366;-1.498;2023-08-08T11:07:14;99948.75;;;17.84;86.98
41898;BME280;27576;53.366;-1.498;2023-08-08T11:09:39;99909.88;;;17.64;83.81
41898;BME280;27576;53.366;-1.498;2023-08-08T11:12:05;99928.88;;;17.74;84.44
41898;BME280;27576;53.366;-1.498;2023-08-08T11:14:30;99913.97;;;17.77;85.12
41898;BME280;27576;53.366;-1.498;2023-08-08T11:16:55;99912.25;;;18.10;84.94
41898;BME280;27576;53.366;-1.498;2023-08-08T11:19:21;99918.19;;;18.51;82.47
41898;BME280;27576;53.366;-1.498;2023-08-08T11:21:48;99926.75;;;18.89;82.10
41898;BME280;27576;53.366;-1.498;2023-08-08T11:24:14;99901.56;;;18.83;80.15
41898;BME280;27576;53.366;-1.498;2023-08-08T11:26:41;99924.22;;;18.86;79.08
41898;BME280;27576;53.366;-1.498;2023-08-08T11:29:09;99922.78;;;18.74;79.37
41898;BME280;27576;53.366;-1.498;2023-08-08T11:31:35;99931.75;;;18.65;81.26
41898;BME280;27576;53.366;-1.498;2023-08-08T11:34:01;99923.31;;;18.54;80.49
41898;BME280;27576;53.366;-1.498;2023-08-08T11:36:31;99902.84;;;18.36;79.55
41898;BME280;27576;53.366;-1.498;2023-08-08T11:38:59;99909.09;;;18.63;81.37
41898;BME280;27576;53.366;-1.498;2023-08-08T11:41:25;99904.34;;;18.77;80.20
41898;BME280;27576;53.366;-1.498;2023-08-08T11:43:51;99910.41;;;19.09;78.20
41898;BME280;27576;53.366;-1.498;2023-08-08T11:46:18;99912.25;;;19.35;79.41
41898;BME280;27576;53.366;-1.498;2023-08-08T11:48:47;99904.91;;;19.45;76.50
41898;BME280;27576;53.366;-1.498;2023-08-08T11:51:14;99907.44;;;19.49;77.85
41898;BME280;27576;53.366;-1.498;2023-08-08T11:53:51;99873.97;;;19.54;77.08
41898;BME280;27576;53.366;-1.498;2023-08-08T11:56:19;99883.63;;;19.80;78.39
41898;BME280;27576;53.366;-1.498;2023-08-08T11:58:45;99883.78;;;19.76;74.15
41898;BME280;27576;53.366;-1.498;2023-08-08T12:01:10;99893.88;;;19.90;77.23
41898;BME280;27576;53.366;-1.498;2023-08-08T12:03:39;99894.81;;;20.14;74.63
41898;BME280;27576;53.366;-1.498;2023-08-08T12:06:15;99891.84;;;20.23;71.06
41898;BME280;27576;53.366;-1.498;2023-08-08T12:08:42;99894.38;;;20.26;71.59
41898;BME280;27576;53.366;-1.498;2023-08-08T12:11:08;99870.44;;;20.08;72.33
41898;BME280;27576;53.366;-1.498;2023-08-08T12:13:34;99879.06;;;20.12;72.20
41898;BME280;27576;53.366;-1.498;2023-08-08T12:16:03;99876.00;;;20.24;73.31
41898;BME280;27576;53.366;-1.498;2023-08-08T12:18:30;99894.03;;;20.35;70.23
41898;BME280;27576;53.366;-1.498;2023-08-08T12:20:56;99886.53;;;20.49;71.89
41898;BME280;27576;53.366;-1.498;2023-08-08T12:23:21;99883.53;;;20.60;71.45
41898;BME280;27576;53.366;-1.498;2023-08-08T12:25:46;99884.00;;;20.71;71.25
41898;BME280;27576;53.366;-1.498;2023-08-08T12:28:12;99875.66;;;20.82;69.96
41898;BME280;27576;53.366;-1.498;2023-08-08T12:30:38;99893.06;;;20.86;70.06